Time;durP1;ratioP1;P1;durP2;ratioP2;P2;SDS_P1;SDS_P2;PMS_P1;PMS_P2;Temp;Humidity;BMP_temperature;BMP_pressure;BME280_temperature;BME280_humidity;BME280_pressure;Samples;Min_cycle;Max_cycle;Signal;HPM_P1;HPM_P2
2021/10/21 00:01:15;;;;;;;3.03;2.70;;;;;;;;;;4991376;28;20197;-73
2021/10/21 00:03:42;;;;;;;2.70;2.50;;;;;;;;;;4989274;28;20213;-73
2021/10/21 00:06:09;;;;;;;2.80;2.60;;;;;;;;;;4993482;28;20193;-72
2021/10/21 00:08:36;;;;;;;3.92;2.55;;;;;;;;;;4992615;28;20649;-73
2021/10/21 00:11:03;;;;;;;2.85;2.65;;;;;;;;;;4990610;28;20293;-74
2021/10/21 00:13:30;;;;;;;5.57;2.83;;;;;;;;;;4990934;28;20190;-72
2021/10/21 00:15:59;;;;;;;3.25;2.67;;;;;;;;;;4990545;28;20665;-74
2021/10/21 00:18:26;;;;;;;3.13;2.53;;;;;;;;;;4989711;28;20206;-74
2021/10/21 00:20:53;;;;;;;2.88;2.58;;;;;;;;;;4990049;28;20632;-72
2021/10/21 00:23:20;;;;;;;3.13;2.80;;;;;;;;;;4990070;28;20205;-74
2021/10/21 00:25:47;;;;;;;3.25;2.95;;;;;;;;;;4990812;28;20628;-73
2021/10/21 00:28:15;;;;;;;2.90;2.60;;;;;;;;;;4990992;28;20736;-72
2021/10/21 00:30:42;;;;;;;2.33;2.13;;;;;;;;;;4991159;28;20622;-72
2021/10/21 00:33:10;;;;;;;2.85;2.65;;;;;;;;;;4990024;28;20668;-73
2021/10/21 00:35:37;;;;;;;2.85;2.65;;;;;;;;;;4990138;28;20202;-72
2021/10/21 00:38:04;;;;;;;2.75;2.50;;;;;;;;;;4989556;28;20608;-73
2021/10/21 00:40:31;;;;;;;2.92;2.72;;;;;;;;;;4988099;28;20202;-72
2021/10/21 00:42:58;;;;;;;4.72;3.08;;;;;;;;;;4984084;28;20595;-73
2021/10/21 00:45:25;;;;;;;3.78;2.50;;;;;;;;;;4981342;28;20199;-73
2021/10/21 00:47:52;;;;;;;2.42;2.22;;;;;;;;;;4988386;28;20209;-73
2021/10/21 00:50:21;;;;;;;4.13;2.78;;;;;;;;;;4987668;28;20712;-72
2021/10/21 00:52:48;;;;;;;2.25;2.05;;;;;;;;;;4989008;28;20193;-74
2021/10/21 00:55:16;;;;;;;4.32;2.92;;;;;;;;;;4990027;28;20271;-73
2021/10/21 00:57:43;;;;;;;4.68;2.83;;;;;;;;;;4990464;28;20612;-73
2021/10/21 01:00:10;;;;;;;5.18;3.10;;;;;;;;;;4988718;28;20201;-74
2021/10/21 01:02:37;;;;;;;2.88;2.47;;;;;;;;;;4990031;28;20208;-74
2021/10/21 01:05:05;;;;;;;4.00;3.00;;;;;;;;;;4990383;28;20201;-73
2021/10/21 01:07:34;;;;;;;4.07;3.03;;;;;;;;;;4988762;28;20715;-73
2021/10/21 01:10:02;;;;;;;2.83;2.40;;;;;;;;;;4990139;28;20211;-72
2021/10/21 01:12:29;;;;;;;3.50;3.20;;;;;;;;;;4988569;28;20197;-74
2021/10/21 01:14:56;;;;;;;3.58;2.88;;;;;;;;;;4989480;28;20202;-73
2021/10/21 01:17:23;;;;;;;2.80;2.35;;;;;;;;;;4988996;28;20724;-75
2021/10/21 01:19:53;;;;;;;2.25;1.95;;;;;;;;;;4989470;28;20209;-72
2021/10/21 01:22:20;;;;;;;2.08;1.88;;;;;;;;;;4989067;28;20205;-73
2021/10/21 01:24:47;;;;;;;2.53;2.33;;;;;;;;;;4988072;28;20209;-74
2021/10/21 01:27:14;;;;;;;3.28;2.70;;;;;;;;;;4989378;28;20193;-73
2021/10/21 01:29:41;;;;;;;2.85;2.65;;;;;;;;;;4989068;28;20621;-74
2021/10/21 01:32:08;;;;;;;3.40;2.35;;;;;;;;;;4990033;28;20199;-73
2021/10/21 01:34:35;;;;;;;2.60;2.40;;;;;;;;;;4988649;28;20253;-73
2021/10/21 01:37:04;;;;;;;3.03;2.72;;;;;;;;;;4989926;28;20225;-72
2021/10/21 01:39:31;;;;;;;3.13;2.60;;;;;;;;;;4988774;28;20326;-72
2021/10/21 01:41:58;;;;;;;3.35;2.90;;;;;;;;;;4989184;28;20288;-72
2021/10/21 01:44:25;;;;;;;3.05;2.75;;;;;;;;;;4989944;28;20248;-73
2021/10/21 01:46:54;;;;;;;4.03;2.70;;;;;;;;;;4989500;28;20228;-73
2021/10/21 01:49:21;;;;;;;2.60;2.40;;;;;;;;;;4988035;28;20661;-73
2021/10/21 01:51:48;;;;;;;5.40;3.13;;;;;;;;;;4989630;28;20205;-73
2021/10/21 01:54:17;;;;;;;3.15;2.20;;;;;;;;;;4989108;28;20212;-75
2021/10/21 01:56:44;;;;;;;2.50;2.30;;;;;;;;;;4986447;28;20569;-74
2021/10/21 01:59:11;;;;;;;2.10;1.90;;;;;;;;;;4978533;28;20198;-72
2021/10/21 02:01:38;;;;;;;2.47;2.08;;;;;;;;;;4981384;28;20719;-73
2021/10/21 02:04:06;;;;;;;2.80;2.55;;;;;;;;;;4987364;28;20236;-73
2021/10/21 02:06:33;;;;;;;2.50;2.28;;;;;;;;;;4987936;28;20673;-72
2021/10/21 02:09:00;;;;;;;1.85;1.67;;;;;;;;;;4989450;28;20194;-73
2021/10/21 02:11:29;;;;;;;2.08;1.88;;;;;;;;;;4989611;28;20202;-72
2021/10/21 02:13:56;;;;;;;2.20;2.00;;;;;;;;;;4988360;28;20671;-73
2021/10/21 02:16:23;;;;;;;2.28;2.08;;;;;;;;;;4991384;28;20666;-73
2021/10/21 02:18:53;;;;;;;3.22;2.08;;;;;;;;;;4983942;28;20226;-73
2021/10/21 02:21:20;;;;;;;3.05;2.33;;;;;;;;;;4995995;28;20189;-73
2021/10/21 02:23:47;;;;;;;3.03;1.83;;;;;;;;;;4987335;28;20663;-74
2021/10/21 02:26:14;;;;;;;2.53;2.33;;;;;;;;;;4991843;28;20216;-75
2021/10/21 02:28:43;;;;;;;2.70;1.98;;;;;;;;;;4993005;28;20200;-73
2021/10/21 02:31:11;;;;;;;1.98;1.80;;;;;;;;;;4992892;28;20736;-72
2021/10/21 02:33:38;;;;;;;2.25;1.80;;;;;;;;;;4991776;28;20240;-72
2021/10/21 02:36:05;;;;;;;2.20;1.98;;;;;;;;;;4994057;28;20275;-73
2021/10/21 02:38:32;;;;;;;1.83;1.70;;;;;;;;;;4992975;28;20221;-73
2021/10/21 02:40:59;;;;;;;1.70;1.42;;;;;;;;;;4992995;28;20197;-75
2021/10/21 02:43:28;;;;;;;3.92;1.52;;;;;;;;;;4992332;28;20198;-73
2021/10/21 02:45:57;;;;;;;1.77;1.65;;;;;;;;;;4991196;28;20202;-73
2021/10/21 02:48:24;;;;;;;3.80;1.65;;;;;;;;;;4991822;28;20209;-74
2021/10/21 02:50:51;;;;;;;1.90;1.60;;;;;;;;;;4992090;28;20728;-75
2021/10/21 02:53:18;;;;;;;1.73;1.60;;;;;;;;;;4990441;28;20194;-75
2021/10/21 02:55:45;;;;;;;2.03;1.20;;;;;;;;;;4991215;28;20252;-75
2021/10/21 02:58:12;;;;;;;1.60;1.38;;;;;;;;;;4991711;28;20218;-74
2021/10/21 03:00:39;;;;;;;1.73;1.40;;;;;;;;;;4990589;28;20206;-74
2021/10/21 03:03:07;;;;;;;1.85;1.52;;;;;;;;;;4990628;28;20198;-73
2021/10/21 03:05:34;;;;;;;1.75;1.20;;;;;;;;;;4991171;28;20205;-74
2021/10/21 03:08:01;;;;;;;2.10;1.40;;;;;;;;;;4987947;28;20669;-74
2021/10/21 03:10:28;;;;;;;2.97;1.60;;;;;;;;;;4991442;28;20197;-74
2021/10/21 03:12:55;;;;;;;1.52;1.27;;;;;;;;;;4991304;28;20202;-74
2021/10/21 03:15:23;;;;;;;1.27;1.10;;;;;;;;;;4991601;28;20341;-74
2021/10/21 03:17:50;;;;;;;2.45;1.00;;;;;;;;;;4989371;28;20222;-74
2021/10/21 03:20:19;;;;;;;2.00;1.23;;;;;;;;;;4990721;28;20256;-74
2021/10/21 03:22:46;;;;;;;2.78;1.25;;;;;;;;;;4990082;28;20202;-74
2021/10/21 03:25:13;;;;;;;3.70;1.30;;;;;;;;;;4989051;28;20193;-74
2021/10/21 03:27:40;;;;;;;1.73;1.10;;;;;;;;;;4989633;28;20189;-74
2021/10/21 03:30:08;;;;;;;1.98;1.13;;;;;;;;;;4993221;28;20225;-75
2021/10/21 03:32:35;;;;;;;2.85;1.30;;;;;;;;;;4988796;28;20677;-75
2021/10/21 03:35:02;;;;;;;4.53;1.10;;;;;;;;;;4983391;28;20202;-74
2021/10/21 03:37:31;;;;;;;1.55;1.00;;;;;;;;;;4981687;28;20257;-74
2021/10/21 03:39:58;;;;;;;2.25;1.20;;;;;;;;;;4985741;28;20612;-75
2021/10/21 03:42:25;;;;;;;3.08;1.10;;;;;;;;;;4990477;28;20256;-74
2021/10/21 03:44:54;;;;;;;3.30;0.90;;;;;;;;;;4990149;28;20244;-74
2021/10/21 03:47:21;;;;;;;2.95;1.10;;;;;;;;;;4989976;28;20217;-75
2021/10/21 03:49:50;;;;;;;2.92;1.13;;;;;;;;;;4991246;28;20272;-75
2021/10/21 03:52:18;;;;;;;1.58;0.90;;;;;;;;;;4990718;28;20236;-74
2021/10/21 03:54:46;;;;;;;3.45;1.27;;;;;;;;;;4988769;28;20301;-75
2021/10/21 03:57:13;;;;;;;3.90;1.25;;;;;;;;;;4990445;28;20209;-76
2021/10/21 03:59:40;;;;;;;2.38;1.45;;;;;;;;;;4989572;28;20233;-73
2021/10/21 04:02:07;;;;;;;5.95;1.40;;;;;;;;;;4989199;28;20264;-72
2021/10/21 04:04:35;;;;;;;4.78;1.35;;;;;;;;;;4989546;28;20542;-74
2021/10/21 04:07:02;;;;;;;3.40;1.00;;;;;;;;;;4989837;28;20649;-74
2021/10/21 04:09:29;;;;;;;2.50;1.02;;;;;;;;;;4990515;28;20676;-73
2021/10/21 04:11:57;;;;;;;4.53;1.17;;;;;;;;;;4982130;28;20206;-74
2021/10/21 04:14:24;;;;;;;2.08;1.23;;;;;;;;;;4989219;28;20625;-74
2021/10/21 04:16:51;;;;;;;1.40;1.00;;;;;;;;;;4988074;28;20252;-74
2021/10/21 04:19:18;;;;;;;1.10;0.80;;;;;;;;;;4989610;28;20217;-73
2021/10/21 04:21:45;;;;;;;2.88;1.38;;;;;;;;;;4989316;28;20243;-75
2021/10/21 04:24:12;;;;;;;1.70;1.25;;;;;;;;;;4990118;28;20965;-75
2021/10/21 04:26:40;;;;;;;4.28;1.15;;;;;;;;;;4990198;28;20214;-74
2021/10/21 04:29:08;;;;;;;2.10;0.80;;;;;;;;;;4990760;28;20248;-75
2021/10/21 04:31:35;;;;;;;2.58;0.90;;;;;;;;;;4989639;28;20209;-74
2021/10/21 04:34:02;;;;;;;4.97;1.50;;;;;;;;;;4990119;28;20198;-75
2021/10/21 04:36:29;;;;;;;2.47;1.00;;;;;;;;;;4989645;28;20308;-75
2021/10/21 04:38:56;;;;;;;1.40;0.90;;;;;;;;;;4987888;28;20624;-75
2021/10/21 04:41:23;;;;;;;3.55;1.10;;;;;;;;;;4990175;28;20209;-75
2021/10/21 04:43:50;;;;;;;2.35;1.00;;;;;;;;;;4990292;28;20221;-75
2021/10/21 04:46:19;;;;;;;3.72;1.10;;;;;;;;;;4991566;28;20667;-75
2021/10/21 04:48:46;;;;;;;2.55;1.00;;;;;;;;;;4990538;28;20205;-74
2021/10/21 04:51:13;;;;;;;2.50;1.20;;;;;;;;;;4981180;28;20213;-75
2021/10/21 04:53:40;;;;;;;1.73;0.95;;;;;;;;;;4982062;28;20301;-75
2021/10/21 04:56:08;;;;;;;2.53;1.13;;;;;;;;;;4986121;28;20727;-75
2021/10/21 04:58:35;;;;;;;2.70;0.95;;;;;;;;;;4991914;28;20213;-75
2021/10/21 05:01:02;;;;;;;5.38;1.10;;;;;;;;;;4988291;28;20201;-74
2021/10/21 05:03:31;;;;;;;1.70;1.00;;;;;;;;;;4988084;28;20214;-74
2021/10/21 05:05:58;;;;;;;2.00;0.90;;;;;;;;;;4988626;28;20209;-75
2021/10/21 05:08:25;;;;;;;2.65;0.98;;;;;;;;;;4988857;28;20624;-76
2021/10/21 05:10:52;;;;;;;4.13;1.02;;;;;;;;;;4989667;28;20228;-74
2021/10/21 05:13:19;;;;;;;2.80;0.80;;;;;;;;;;4989498;28;20220;-75
2021/10/21 05:15:46;;;;;;;2.58;1.05;;;;;;;;;;4988577;28;20229;-74
2021/10/21 05:18:13;;;;;;;1.67;0.80;;;;;;;;;;4988115;28;20218;-73
2021/10/21 05:20:41;;;;;;;1.73;0.95;;;;;;;;;;4987979;28;20204;-74
2021/10/21 05:23:08;;;;;;;5.60;1.05;;;;;;;;;;4988284;28;20213;-74
2021/10/21 05:25:35;;;;;;;2.85;1.30;;;;;;;;;;4989101;28;20739;-76
2021/10/21 05:28:03;;;;;;;1.55;1.00;;;;;;;;;;4989797;28;20658;-74
2021/10/21 05:30:30;;;;;;;2.03;0.90;;;;;;;;;;4987851;28;20217;-75
2021/10/21 05:32:57;;;;;;;4.10;0.95;;;;;;;;;;4989018;28;20228;-75
2021/10/21 05:35:24;;;;;;;1.10;0.85;;;;;;;;;;4989331;28;20280;-75
2021/10/21 05:37:52;;;;;;;1.70;0.77;;;;;;;;;;4988620;28;20435;-74
2021/10/21 05:40:20;;;;;;;2.28;0.90;;;;;;;;;;4989371;28;20201;-75
2021/10/21 05:42:47;;;;;;;1.40;0.90;;;;;;;;;;4986862;28;20204;-74
2021/10/21 05:45:14;;;;;;;1.67;0.90;;;;;;;;;;4988556;28;20296;-76
2021/10/21 05:47:43;;;;;;;2.08;0.80;;;;;;;;;;4987642;28;20240;-74
2021/10/21 05:50:11;;;;;;;1.50;0.80;;;;;;;;;;4989243;28;20597;-74
2021/10/21 05:52:38;;;;;;;3.30;0.95;;;;;;;;;;4989636;28;20201;-76
2021/10/21 05:55:07;;;;;;;6.47;1.20;;;;;;;;;;4992285;28;20209;-75
2021/10/21 05:57:34;;;;;;;0.90;0.77;;;;;;;;;;4991583;28;20201;-76
2021/10/21 06:00:01;;;;;;;2.45;0.77;;;;;;;;;;4993549;28;20684;-75
2021/10/21 06:02:28;;;;;;;1.85;1.00;;;;;;;;;;4992728;28;20193;-76
2021/10/21 06:04:55;;;;;;;1.63;0.88;;;;;;;;;;4992319;28;20620;-76
2021/10/21 06:07:22;;;;;;;1.50;0.90;;;;;;;;;;4995341;28;20261;-76
2021/10/21 06:09:52;;;;;;;1.00;0.80;;;;;;;;;;4991759;28;20649;-75
2021/10/21 06:12:20;;;;;;;1.25;1.00;;;;;;;;;;4976979;28;20212;-76
2021/10/21 06:14:47;;;;;;;3.15;1.17;;;;;;;;;;4987108;28;20641;-75
2021/10/21 06:17:14;;;;;;;1.05;0.90;;;;;;;;;;4994193;28;20205;-76
2021/10/21 06:19:42;;;;;;;3.90;0.90;;;;;;;;;;4994127;28;20209;-76
2021/10/21 06:22:11;;;;;;;1.00;0.70;;;;;;;;;;4984817;28;20563;-75
2021/10/21 06:24:38;;;;;;;1.20;0.90;;;;;;;;;;4990115;28;20197;-76
2021/10/21 06:27:05;;;;;;;1.33;0.82;;;;;;;;;;4993328;28;20681;-76
2021/10/21 06:29:34;;;;;;;1.17;0.93;;;;;;;;;;4992907;28;20204;-76
2021/10/21 06:32:01;;;;;;;6.13;0.77;;;;;;;;;;4991785;28;20236;-76
2021/10/21 06:34:28;;;;;;;0.93;0.73;;;;;;;;;;4991686;28;20244;-76
2021/10/21 06:36:55;;;;;;;2.95;1.45;;;;;;;;;;4992042;28;20189;-76
2021/10/21 06:39:22;;;;;;;1.00;0.80;;;;;;;;;;4992924;28;20222;-76
2021/10/21 06:41:49;;;;;;;3.63;0.90;;;;;;;;;;4994406;28;20639;-76
2021/10/21 06:44:16;;;;;;;1.20;1.00;;;;;;;;;;4993485;28;20252;-75
2021/10/21 06:46:45;;;;;;;3.00;1.30;;;;;;;;;;4992027;28;20194;-76
2021/10/21 06:49:12;;;;;;;1.95;0.80;;;;;;;;;;4991215;28;20309;-77
2021/10/21 06:51:39;;;;;;;1.23;0.85;;;;;;;;;;4992333;28;20233;-75
2021/10/21 06:54:06;;;;;;;2.45;0.73;;;;;;;;;;4991111;28;20201;-76
2021/10/21 06:56:33;;;;;;;1.38;0.70;;;;;;;;;;4991926;28;20201;-76
2021/10/21 06:59:00;;;;;;;1.10;0.80;;;;;;;;;;4991502;28;20562;-77
2021/10/21 07:01:27;;;;;;;0.93;0.75;;;;;;;;;;4991564;28;20194;-77
2021/10/21 07:03:57;;;;;;;1.45;0.90;;;;;;;;;;4990474;28;20688;-76
2021/10/21 07:06:24;;;;;;;1.00;0.70;;;;;;;;;;4994027;28;20205;-75
2021/10/21 07:08:51;;;;;;;1.17;0.80;;;;;;;;;;4988281;28;20712;-75
2021/10/21 07:11:18;;;;;;;1.65;0.80;;;;;;;;;;4991933;28;20193;-77
2021/10/21 07:13:45;;;;;;;1.52;0.95;;;;;;;;;;4990793;28;20204;-75
2021/10/21 07:16:12;;;;;;;2.35;1.05;;;;;;;;;;4991908;28;20201;-76
2021/10/21 07:18:39;;;;;;;1.00;0.70;;;;;;;;;;4991447;28;20226;-76
2021/10/21 07:21:09;;;;;;;2.35;0.80;;;;;;;;;;4993861;28;20653;-76
2021/10/21 07:23:36;;;;;;;1.45;1.00;;;;;;;;;;4991897;28;20193;-75
2021/10/21 07:26:03;;;;;;;1.73;0.80;;;;;;;;;;4990520;28;20581;-76
2021/10/21 07:28:30;;;;;;;2.53;1.20;;;;;;;;;;4993335;28;20189;-75
2021/10/21 07:30:58;;;;;;;1.63;0.90;;;;;;;;;;4992747;28;20221;-75
2021/10/21 07:33:25;;;;;;;1.10;0.77;;;;;;;;;;4994291;28;20198;-76
2021/10/21 07:35:52;;;;;;;1.48;1.00;;;;;;;;;;4988798;28;20284;-76
2021/10/21 07:38:20;;;;;;;1.50;0.70;;;;;;;;;;4992515;28;20271;-75
2021/10/21 07:40:47;;;;;;;0.90;0.63;;;;;;;;;;4991032;28;20213;-75
2021/10/21 07:43:15;;;;;;;0.90;0.70;;;;;;;;;;4989391;28;20240;-75
2021/10/21 07:45:42;;;;;;;0.93;0.82;;;;;;;;;;4987875;28;20213;-75
2021/10/21 07:48:09;;;;;;;1.52;0.70;;;;;;;;;;4990352;28;20201;-75
2021/10/21 07:50:37;;;;;;;1.35;0.70;;;;;;;;;;4989477;28;20197;-75
2021/10/21 07:53:04;;;;;;;0.95;0.70;;;;;;;;;;4990615;28;20213;-75
2021/10/21 07:55:33;;;;;;;4.03;1.15;;;;;;;;;;4989754;28;20193;-75
2021/10/21 07:58:00;;;;;;;1.40;0.60;;;;;;;;;;4990084;28;20193;-75
2021/10/21 08:00:27;;;;;;;0.90;0.60;;;;;;;;;;4990389;28;20689;-76
2021/10/21 08:02:54;;;;;;;1.20;0.70;;;;;;;;;;4989079;28;20252;-76
2021/10/21 08:05:21;;;;;;;1.23;0.80;;;;;;;;;;4990561;28;20208;-76
2021/10/21 08:07:48;;;;;;;2.40;0.90;;;;;;;;;;4990502;28;20210;-76
2021/10/21 08:10:16;;;;;;;1.42;0.70;;;;;;;;;;4989806;28;20209;-76
2021/10/21 08:12:45;;;;;;;2.15;0.88;;;;;;;;;;4990447;28;20217;-76
2021/10/21 08:15:13;;;;;;;2.35;0.88;;;;;;;;;;4990970;28;20280;-75
2021/10/21 08:17:42;;;;;;;1.50;0.98;;;;;;;;;;4988892;28;20225;-75
2021/10/21 08:20:11;;;;;;;1.50;0.77;;;;;;;;;;4990065;28;20217;-77
2021/10/21 08:22:38;;;;;;;1.10;0.80;;;;;;;;;;4988632;28;20618;-75
2021/10/21 08:25:05;;;;;;;0.90;0.65;;;;;;;;;;4989605;28;20676;-76
2021/10/21 08:27:32;;;;;;;4.70;1.00;;;;;;;;;;4990573;28;20206;-76
2021/10/21 08:30:00;;;;;;;1.65;0.80;;;;;;;;;;4990223;28;20213;-76
2021/10/21 08:32:28;;;;;;;2.53;0.70;;;;;;;;;;4988805;28;20272;-76
2021/10/21 08:34:55;;;;;;;2.58;0.70;;;;;;;;;;4989611;28;20206;-75
2021/10/21 08:37:22;;;;;;;1.80;0.75;;;;;;;;;;4989578;28;20256;-75
2021/10/21 08:39:50;;;;;;;1.35;1.08;;;;;;;;;;4989413;28;20224;-76
2021/10/21 08:42:19;;;;;;;2.25;0.80;;;;;;;;;;4989289;28;20221;-76
2021/10/21 08:44:46;;;;;;;2.90;0.80;;;;;;;;;;4990021;28;20200;-77
2021/10/21 08:47:19;;;;;;;2.00;0.90;;;;;;;;;;4988169;28;20204;-76
2021/10/21 08:49:47;;;;;;;4.18;1.05;;;;;;;;;;4990425;28;20200;-76
2021/10/21 08:52:14;;;;;;;1.42;0.80;;;;;;;;;;4990099;28;20267;-76
2021/10/21 08:54:41;;;;;;;2.95;1.00;;;;;;;;;;4988792;28;20578;-75
2021/10/21 08:57:11;;;;;;;3.03;0.90;;;;;;;;;;4989687;28;20193;-74
2021/10/21 08:59:38;;;;;;;5.30;1.42;;;;;;;;;;4988009;28;20893;-76
2021/10/21 09:02:11;;;;;;;3.05;1.40;;;;;;;;;;4992043;28;20198;-77
2021/10/21 09:04:53;;;;;;;5.80;1.40;;;;;;;;;;4986521;28;20194;-75
2021/10/21 09:10:08;;;;;;;3.17;0.98;;;;;;;;;;4992252;28;20193;-76
2021/10/21 09:12:40;;;;;;;4.30;1.30;;;;;;;;;;4988153;28;20197;-76
2021/10/21 09:15:09;;;;;;;2.85;1.65;;;;;;;;;;5003217;28;20209;-75
2021/10/21 09:17:37;;;;;;;4.07;1.35;;;;;;;;;;4993500;28;20204;-75
2021/10/21 09:20:19;;;;;;;4.15;3.55;;;;;;;;;;4991238;28;20292;-76
2021/10/21 09:22:53;;;;;;;4.10;1.30;;;;;;;;;;4989233;28;20204;-75
2021/10/21 09:25:23;;;;;;;5.43;1.33;;;;;;;;;;4982101;28;20881;-74
2021/10/21 09:27:51;;;;;;;8.15;1.85;;;;;;;;;;4991320;28;20236;-76
2021/10/21 09:30:24;;;;;;;4.85;1.50;;;;;;;;;;4993948;28;20224;-76
2021/10/21 09:32:51;;;;;;;2.08;1.20;;;;;;;;;;4981795;28;20232;-74
2021/10/21 09:35:21;;;;;;;2.70;1.27;;;;;;;;;;4983654;28;20238;-74
2021/10/21 09:37:49;;;;;;;4.38;1.98;;;;;;;;;;4987220;28;20201;-75
2021/10/21 09:40:21;;;;;;;6.78;1.40;;;;;;;;;;4986761;28;20219;-75
2021/10/21 09:42:55;;;;;;;4.63;1.95;;;;;;;;;;4985844;28;20212;-74
2021/10/21 09:45:24;;;;;;;5.43;2.00;;;;;;;;;;4978496;28;20708;-73
2021/10/21 09:47:52;;;;;;;7.13;2.08;;;;;;;;;;4991265;28;20205;-74
2021/10/21 09:50:23;;;;;;;3.28;1.73;;;;;;;;;;4991002;28;20296;-74
2021/10/21 09:53:08;;;;;;;4.40;1.70;;;;;;;;;;4979678;28;20202;-73
2021/10/21 09:55:37;;;;;;;7.60;1.95;;;;;;;;;;4991507;28;20205;-74
2021/10/21 09:58:05;;;;;;;4.63;1.50;;;;;;;;;;4992013;28;20537;-73
2021/10/21 10:00:33;;;;;;;3.42;1.70;;;;;;;;;;4991863;28;20233;-73
2021/10/21 10:03:10;;;;;;;5.55;2.42;;;;;;;;;;4974755;28;20217;-74
2021/10/21 10:05:39;;;;;;;3.20;1.40;;;;;;;;;;4989142;28;20251;-74
2021/10/21 10:08:08;;;;;;;6.18;2.28;;;;;;;;;;4987500;28;20217;-73
2021/10/21 10:10:38;;;;;;;5.72;2.42;;;;;;;;;;4988155;28;20649;-73
2021/10/21 10:13:05;;;;;;;6.32;1.70;;;;;;;;;;4986702;28;20194;-73
2021/10/21 10:15:32;;;;;;;6.05;2.80;;;;;;;;;;4988823;28;20205;-73
2021/10/21 10:17:59;;;;;;;4.68;1.60;;;;;;;;;;4983530;28;20209;-74
2021/10/21 10:20:27;;;;;;;4.85;1.48;;;;;;;;;;4986748;28;20866;-73
2021/10/21 10:22:54;;;;;;;7.63;1.60;;;;;;;;;;4983984;28;20560;-73
2021/10/21 10:25:22;;;;;;;6.45;1.73;;;;;;;;;;4986973;28;20213;-74
2021/10/21 10:27:58;;;;;;;7.28;2.17;;;;;;;;;;4986737;28;20264;-74
2021/10/21 10:30:42;;;;;;;5.40;1.77;;;;;;;;;;4987504;28;20213;-73
2021/10/21 10:33:09;;;;;;;4.63;1.73;;;;;;;;;;4987411;28;20213;-72
2021/10/21 10:35:39;;;;;;;5.55;2.05;;;;;;;;;;4986118;28;20210;-73
2021/10/21 10:38:06;;;;;;;5.53;1.70;;;;;;;;;;4985304;28;20217;-73
2021/10/21 10:40:51;;;;;;;4.45;2.08;;;;;;;;;;4990064;28;20254;-73
2021/10/21 10:43:19;;;;;;;5.53;1.80;;;;;;;;;;4990734;28;20201;-74
2021/10/21 10:45:51;;;;;;;3.97;1.65;;;;;;;;;;4989928;28;20197;-74
2021/10/21 10:48:49;;;;;;;5.90;2.00;;;;;;;;;;4990664;28;20288;-73
2021/10/21 10:51:16;;;;;;;4.43;2.70;;;;;;;;;;4989000;28;20216;-73
2021/10/21 10:53:44;;;;;;;3.72;1.60;;;;;;;;;;4989303;28;20201;-73
2021/10/21 10:56:11;;;;;;;5.38;1.83;;;;;;;;;;4988012;28;20216;-74
2021/10/21 10:58:39;;;;;;;4.72;2.00;;;;;;;;;;4990626;28;20201;-73
2021/10/21 11:01:06;;;;;;;3.67;1.65;;;;;;;;;;4989707;28;20280;-73
2021/10/21 11:03:36;;;;;;;3.30;1.50;;;;;;;;;;4989849;28;20205;-74
2021/10/21 11:06:03;;;;;;;2.45;1.38;;;;;;;;;;4987718;28;20202;-73
2021/10/21 11:08:49;;;;;;;5.43;1.40;;;;;;;;;;4987799;28;20292;-74
2021/10/21 11:11:31;;;;;;;5.90;1.52;;;;;;;;;;4989856;28;20189;-75
2021/10/21 11:14:05;;;;;;;2.50;1.50;;;;;;;;;;4989141;28;20264;-73
2021/10/21 11:16:49;;;;;;;2.17;1.38;;;;;;;;;;4988028;28;20194;-72
2021/10/21 11:19:31;;;;;;;4.65;1.75;;;;;;;;;;4981749;28;20198;-74
2021/10/21 11:21:58;;;;;;;4.30;1.90;;;;;;;;;;4982206;28;20781;-74
2021/10/21 11:24:45;;;;;;;3.00;1.83;;;;;;;;;;4988725;28;20225;-73
2021/10/21 11:27:12;;;;;;;2.78;1.60;;;;;;;;;;4990312;28;20681;-72
2021/10/21 11:29:41;;;;;;;3.40;1.90;;;;;;;;;;4989177;28;20212;-73
2021/10/21 11:32:09;;;;;;;3.72;1.70;;;;;;;;;;4989926;28;20200;-72
2021/10/21 11:34:36;;;;;;;5.53;1.33;;;;;;;;;;4989717;28;20557;-72
2021/10/21 11:37:04;;;;;;;3.42;1.45;;;;;;;;;;4990964;28;20204;-72
2021/10/21 11:39:31;;;;;;;4.75;1.35;;;;;;;;;;4989080;28;20600;-73
2021/10/21 11:41:59;;;;;;;2.45;1.30;;;;;;;;;;4990596;28;20617;-72
2021/10/21 11:44:26;;;;;;;5.30;1.23;;;;;;;;;;4990152;28;20190;-73
2021/10/21 11:46:58;;;;;;;3.90;1.33;;;;;;;;;;4989385;28;20305;-71
2021/10/21 11:49:26;;;;;;;4.90;1.45;;;;;;;;;;4989406;28;20256;-73
2021/10/21 11:52:02;;;;;;;3.65;1.25;;;;;;;;;;4989816;28;20226;-72
2021/10/21 11:54:29;;;;;;;3.08;1.40;;;;;;;;;;4989934;28;20669;-73
2021/10/21 11:56:57;;;;;;;3.13;1.23;;;;;;;;;;4989117;28;20204;-73
2021/10/21 11:59:33;;;;;;;3.50;1.35;;;;;;;;;;4990084;28;20197;-73
2021/10/21 12:02:08;;;;;;;4.72;1.40;;;;;;;;;;4990987;28;20677;-72
2021/10/21 12:04:36;;;;;;;3.13;1.35;;;;;;;;;;4979992;28;20660;-72
2021/10/21 12:07:03;;;;;;;6.10;1.48;;;;;;;;;;4988321;28;20332;-72
2021/10/21 12:09:33;;;;;;;5.40;1.70;;;;;;;;;;4987995;28;20194;-73
2021/10/21 12:12:05;;;;;;;1.80;1.20;;;;;;;;;;4990773;28;20691;-72
2021/10/21 12:14:32;;;;;;;2.85;1.20;;;;;;;;;;4989707;28;20623;-73
2021/10/21 12:16:59;;;;;;;2.05;1.38;;;;;;;;;;4987962;28;20735;-73
2021/10/21 12:19:29;;;;;;;4.72;1.70;;;;;;;;;;4988532;28;20284;-72
2021/10/21 12:22:04;;;;;;;2.42;1.60;;;;;;;;;;4989771;28;20244;-73
2021/10/21 12:24:31;;;;;;;2.30;1.20;;;;;;;;;;4989244;28;20271;-74
2021/10/21 12:26:59;;;;;;;1.63;1.20;;;;;;;;;;4989268;28;20217;-73
2021/10/21 12:29:33;;;;;;;4.50;1.55;;;;;;;;;;4989632;28;20236;-72
2021/10/21 12:32:00;;;;;;;3.47;1.40;;;;;;;;;;4988641;28;20189;-74
2021/10/21 12:34:29;;;;;;;1.65;1.40;;;;;;;;;;4989510;28;20569;-73
2021/10/21 12:36:56;;;;;;;3.67;1.00;;;;;;;;;;4987620;28;20546;-72
2021/10/21 12:39:27;;;;;;;1.80;1.00;;;;;;;;;;4984483;28;20201;-73
2021/10/21 12:41:56;;;;;;;1.63;1.20;;;;;;;;;;4980679;28;20235;-72
2021/10/21 12:44:24;;;;;;;1.42;1.20;;;;;;;;;;4980790;28;20388;-72
2021/10/21 12:46:52;;;;;;;2.25;0.90;;;;;;;;;;4988498;28;20212;-73
2021/10/21 12:49:20;;;;;;;3.53;1.30;;;;;;;;;;4988184;28;20201;-72
2021/10/21 12:51:49;;;;;;;1.55;1.00;;;;;;;;;;4986768;28;20665;-73
2021/10/21 12:54:27;;;;;;;1.40;0.90;;;;;;;;;;4988777;28;20588;-72
2021/10/21 12:56:54;;;;;;;2.22;1.00;;;;;;;;;;4987918;28;20197;-73
2021/10/21 12:59:22;;;;;;;2.08;0.90;;;;;;;;;;4987214;28;20240;-74
2021/10/21 13:02:00;;;;;;;1.80;0.77;;;;;;;;;;4981015;28;20722;-72
2021/10/21 13:04:37;;;;;;;4.43;2.05;;;;;;;;;;4981934;28;20427;-74
2021/10/21 13:07:06;;;;;;;2.75;1.00;;;;;;;;;;4980659;28;20669;-74
2021/10/21 13:09:33;;;;;;;1.27;0.98;;;;;;;;;;4983548;28;20267;-74
2021/10/21 13:12:00;;;;;;;1.30;1.08;;;;;;;;;;4987041;28;20665;-74
2021/10/21 13:14:30;;;;;;;4.50;0.80;;;;;;;;;;4979815;28;20616;-74
2021/10/21 13:16:57;;;;;;;2.10;1.20;;;;;;;;;;4987696;28;20292;-74
2021/10/21 13:19:24;;;;;;;1.23;0.95;;;;;;;;;;4983818;28;20206;-75
2021/10/21 13:21:51;;;;;;;2.22;1.10;;;;;;;;;;4982534;28;20275;-75
2021/10/21 13:24:20;;;;;;;2.05;1.10;;;;;;;;;;4982619;28;20686;-75
2021/10/21 13:26:47;;;;;;;2.78;1.25;;;;;;;;;;4982982;28;20213;-74
2021/10/21 13:29:14;;;;;;;1.95;0.90;;;;;;;;;;4981520;28;20205;-76
2021/10/21 13:31:41;;;;;;;2.58;1.60;;;;;;;;;;4982197;28;20216;-74
2021/10/21 13:34:08;;;;;;;2.08;1.00;;;;;;;;;;4985224;28;20197;-76
2021/10/21 13:36:35;;;;;;;1.70;0.93;;;;;;;;;;4987628;28;20720;-74
2021/10/21 13:39:02;;;;;;;1.48;0.93;;;;;;;;;;4988428;28;20208;-75
2021/10/21 13:41:30;;;;;;;2.97;1.23;;;;;;;;;;4988696;28;20221;-75
2021/10/21 13:43:57;;;;;;;2.70;1.10;;;;;;;;;;4989482;28;20193;-74
2021/10/21 13:46:25;;;;;;;2.63;0.93;;;;;;;;;;4987114;28;20264;-76
2021/10/21 13:48:52;;;;;;;1.30;0.90;;;;;;;;;;4988150;28;20205;-75
2021/10/21 13:51:19;;;;;;;1.08;0.80;;;;;;;;;;4985366;28;20191;-74
2021/10/21 13:53:46;;;;;;;2.90;1.20;;;;;;;;;;4988822;28;20193;-75
2021/10/21 13:56:13;;;;;;;1.65;0.80;;;;;;;;;;4987670;28;20296;-75
2021/10/21 13:58:41;;;;;;;1.20;0.90;;;;;;;;;;4984435;28;20213;-74
2021/10/21 14:01:08;;;;;;;1.52;1.00;;;;;;;;;;4987702;28;20699;-75
2021/10/21 14:03:36;;;;;;;1.55;0.80;;;;;;;;;;4985457;28;20205;-72
2021/10/21 14:06:03;;;;;;;4.05;1.45;;;;;;;;;;4981453;28;20573;-75
2021/10/21 14:08:31;;;;;;;1.20;0.93;;;;;;;;;;4980893;28;20285;-75
2021/10/21 14:10:58;;;;;;;1.98;0.93;;;;;;;;;;4980759;28;20197;-76
2021/10/21 14:13:25;;;;;;;2.97;0.93;;;;;;;;;;4979938;28;20198;-76
2021/10/21 14:15:55;;;;;;;1.45;0.70;;;;;;;;;;4986356;28;20528;-75
2021/10/21 14:18:22;;;;;;;1.50;0.90;;;;;;;;;;4986815;28;20653;-75
2021/10/21 14:20:49;;;;;;;1.20;0.93;;;;;;;;;;4985491;28;20679;-76
2021/10/21 14:23:16;;;;;;;1.20;0.70;;;;;;;;;;4986121;28;20260;-75
2021/10/21 14:25:43;;;;;;;3.35;0.80;;;;;;;;;;4986215;28;20213;-75
2021/10/21 14:28:10;;;;;;;1.60;1.00;;;;;;;;;;4987828;28;20205;-75
2021/10/21 14:30:38;;;;;;;0.90;0.60;;;;;;;;;;4991611;28;20248;-75
2021/10/21 14:33:06;;;;;;;2.08;0.80;;;;;;;;;;4990914;28;20407;-75
2021/10/21 14:35:33;;;;;;;1.00;0.63;;;;;;;;;;4992451;28;20669;-75
2021/10/21 14:38:00;;;;;;;1.27;0.80;;;;;;;;;;4991571;28;20221;-74
2021/10/21 14:40:28;;;;;;;0.90;0.75;;;;;;;;;;4991075;28;20279;-76
2021/10/21 14:42:55;;;;;;;1.15;0.75;;;;;;;;;;4992000;28;20209;-75
2021/10/21 14:45:22;;;;;;;1.42;0.90;;;;;;;;;;4991883;28;20255;-75
2021/10/21 14:47:49;;;;;;;1.10;0.80;;;;;;;;;;4991605;28;20208;-76
2021/10/21 14:50:17;;;;;;;1.55;0.75;;;;;;;;;;4991063;28;20197;-74
2021/10/21 14:52:44;;;;;;;1.20;0.75;;;;;;;;;;4990799;28;20207;-75